createdAt,value
2023-02-16T00:00:19.547Z,74.10
2023-02-16T00:03:22.733Z,66.87
2023-02-16T00:06:26.541Z,75.15
2023-02-16T00:09:29.114Z,75.53
2023-02-16T00:12:50.523Z,70.13
2023-02-16T00:15:53.155Z,66.93
2023-02-16T00:18:56.072Z,74.68
2023-02-16T00:22:00.219Z,68.80
2023-02-16T00:25:02.732Z,69.78
2023-02-16T00:28:13.103Z,69.40
2023-02-16T00:31:21.376Z,62.72
2023-02-16T00:34:26.783Z,60.17
2023-02-16T00:37:29.325Z,70.10
2023-02-16T00:40:34.698Z,61.97
2023-02-16T00:43:37.408Z,69.90
2023-02-16T00:46:41.485Z,67.00
2023-02-16T00:49:44.019Z,67.10
2023-02-16T00:52:48.466Z,68.55
2023-02-16T00:55:51.065Z,69.70
2023-02-16T00:58:53.817Z,69.95
2023-02-16T01:01:57.616Z,65.97
2023-02-16T01:05:00.348Z,69.07
2023-02-16T01:08:21.679Z,72.85
2023-02-16T01:11:25.636Z,67.47
2023-02-16T01:14:30.058Z,64.37
2023-02-16T01:17:32.493Z,62.63
2023-02-16T01:20:38.066Z,80.47
2023-02-16T01:23:43.316Z,79.13
2023-02-16T01:26:49.084Z,67.80
2023-02-16T01:29:51.597Z,75.15
2023-02-16T01:32:54.536Z,71.57
2023-02-16T01:35:58.559Z,69.17
2023-02-16T01:39:01.915Z,76.47
2023-02-16T01:42:37.396Z,73.97
2023-02-16T01:45:45.409Z,69.30
2023-02-16T01:48:48.071Z,70.05
2023-02-16T01:52:00.795Z,73.70
2023-02-16T01:55:22.168Z,78.40
2023-02-16T01:58:30.581Z,66.53
2023-02-16T02:01:45.397Z,73.97
2023-02-16T02:05:13.715Z,75.97
2023-02-16T02:08:22.208Z,67.87
2023-02-16T02:11:30.202Z,71.72
2023-02-16T02:14:38.536Z,77.85
2023-02-16T02:17:41.105Z,79.27
2023-02-16T02:21:24.493Z,68.53
2023-02-16T02:24:30.001Z,75.35
2023-02-16T02:27:53.102Z,70.47
2023-02-16T02:31:27.318Z,77.55
2023-02-16T02:34:59.448Z,73.93
2023-02-16T02:38:23.973Z,75.07
2023-02-16T02:42:05.403Z,76.33
2023-02-16T02:45:28.044Z,70.15
2023-02-16T02:48:32.739Z,77.70
2023-02-16T02:51:40.331Z,77.00
2023-02-16T02:55:05.354Z,70.82
2023-02-16T02:58:27.213Z,79.50
2023-02-16T03:01:32.564Z,83.20
2023-02-16T03:04:35.129Z,77.78
2023-02-16T03:07:48.455Z,85.97
2023-02-16T03:11:16.851Z,75.65
2023-02-16T03:14:36.473Z,81.00
2023-02-16T03:17:59.778Z,79.28
2023-02-16T03:21:22.651Z,79.32
2023-02-16T03:24:47.736Z,78.07
2023-02-16T03:28:09.683Z,80.13
2023-02-16T03:31:16.442Z,81.28
2023-02-16T03:34:20.623Z,112.05
2023-02-16T03:37:23.381Z,180.45
2023-02-16T03:40:28.593Z,109.75
2023-02-16T03:43:31.121Z,145.98
2023-02-16T03:46:34.251Z,149.57
2023-02-16T03:49:37.078Z,173.73
2023-02-16T03:52:39.571Z,108.68
2023-02-16T03:55:47.666Z,118.60
2023-02-16T03:58:50.256Z,127.30
2023-02-16T04:01:52.805Z,133.05
2023-02-16T04:04:55.508Z,199.27
2023-02-16T04:07:57.916Z,179.38
2023-02-16T04:11:00.651Z,187.10
2023-02-16T04:14:03.232Z,123.57
2023-02-16T04:17:05.691Z,130.97
2023-02-16T04:20:10.738Z,139.25
2023-02-16T04:23:15.556Z,117.60
2023-02-16T04:26:18.250Z,100.87
2023-02-16T04:29:20.825Z,111.72
2023-02-16T04:32:23.494Z,102.93
2023-02-16T04:35:26.306Z,109.15
2023-02-16T04:38:29.247Z,117.40
2023-02-16T04:41:31.980Z,115.40
2023-02-16T04:44:34.546Z,132.48
2023-02-16T04:47:37.521Z,166.70
2023-02-16T04:50:42.268Z,146.40
2023-02-16T04:53:44.741Z,103.78
2023-02-16T04:56:48.395Z,115.60
2023-02-16T04:59:51.070Z,155.43
2023-02-16T05:02:53.640Z,150.32
2023-02-16T05:05:57.663Z,133.52
2023-02-16T05:09:00.175Z,126.85
2023-02-16T05:12:37.578Z,149.20
2023-02-16T05:15:40.286Z,108.35
2023-02-16T05:18:42.900Z,131.00
2023-02-16T05:21:45.468Z,123.00
2023-02-16T05:24:48.989Z,147.63
2023-02-16T05:27:51.800Z,103.37
2023-02-16T05:30:54.349Z,118.82
2023-02-16T05:33:57.239Z,101.55
2023-02-16T05:36:59.824Z,111.63
2023-02-16T05:40:02.480Z,92.00
2023-02-16T05:43:05.053Z,89.53
2023-02-16T05:46:08.784Z,84.55
2023-02-16T05:49:11.419Z,172.80
2023-02-16T05:52:13.948Z,158.60
2023-02-16T05:55:16.573Z,141.70
2023-02-16T05:58:19.099Z,136.67
2023-02-16T06:01:21.843Z,132.80
2023-02-16T06:04:24.641Z,123.65
2023-02-16T06:07:27.172Z,126.18
2023-02-16T06:10:29.692Z,140.98
2023-02-16T06:13:32.152Z,177.15
2023-02-16T06:16:36.398Z,160.73
2023-02-16T06:19:38.881Z,134.87
2023-02-16T06:22:41.528Z,175.00
2023-02-16T06:25:45.753Z,145.30
2023-02-16T06:28:48.379Z,162.17
2023-02-16T06:31:50.999Z,119.68
2023-02-16T06:34:53.543Z,139.20
2023-02-16T06:37:56.740Z,119.85
2023-02-16T06:40:59.298Z,159.68
2023-02-16T06:44:04.956Z,145.15
2023-02-16T06:47:07.687Z,111.78
2023-02-16T06:50:11.065Z,169.00
2023-02-16T06:53:13.667Z,190.30
2023-02-16T06:56:16.476Z,221.88
2023-02-16T06:59:18.982Z,193.57
2023-02-16T07:02:21.990Z,201.13
2023-02-16T07:05:25.230Z,201.48
2023-02-16T07:08:28.008Z,186.35
2023-02-16T07:11:30.547Z,176.57
2023-02-16T07:14:33.382Z,156.18
2023-02-16T07:17:35.982Z,174.82
2023-02-16T07:20:38.750Z,170.57
2023-02-16T07:23:41.657Z,129.75
2023-02-16T07:26:44.239Z,189.77
2023-02-16T07:29:47.037Z,123.60
2023-02-16T07:32:49.573Z,179.20
2023-02-16T07:35:52.230Z,152.52
2023-02-16T07:38:55.304Z,193.50
2023-02-16T07:41:57.852Z,159.20
2023-02-16T07:45:01.960Z,122.40
2023-02-16T07:48:05.344Z,98.13
2023-02-16T07:51:08.235Z,133.00
2023-02-16T07:54:11.364Z,116.88
2023-02-16T07:57:14.548Z,86.70
2023-02-16T08:00:17.664Z,118.53
2023-02-16T08:03:20.423Z,143.60
2023-02-16T08:06:23.479Z,140.98
2023-02-16T08:09:26.520Z,138.77
2023-02-16T08:12:29.132Z,82.03
2023-02-16T08:15:31.854Z,84.07
2023-02-16T08:18:34.787Z,119.70
2023-02-16T08:21:42.441Z,136.95
2023-02-16T08:24:45.216Z,125.37
2023-02-16T08:27:47.770Z,98.07
2023-02-16T08:30:50.573Z,110.55
2023-02-16T08:33:55.164Z,107.50
2023-02-16T08:36:58.034Z,98.10
2023-02-16T08:40:02.542Z,104.68
2023-02-16T08:43:05.547Z,94.22
2023-02-16T08:46:09.206Z,111.47
2023-02-16T08:49:12.448Z,108.23
2023-02-16T08:52:15.161Z,132.45
2023-02-16T08:55:18.284Z,107.63
2023-02-16T08:58:21.413Z,88.67
2023-02-16T09:01:24.132Z,100.67
2023-02-16T09:04:29.325Z,100.57
2023-02-16T09:07:35.124Z,103.55
2023-02-16T09:10:38.970Z,91.57
2023-02-16T09:13:43.463Z,95.80
2023-02-16T09:16:46.628Z,91.65
2023-02-16T09:19:49.428Z,90.15
2023-02-16T09:22:52.585Z,90.18
2023-02-16T09:25:55.404Z,85.77
2023-02-16T09:28:59.178Z,114.75
2023-02-16T09:32:02.732Z,111.35
2023-02-16T09:35:05.677Z,109.32
2023-02-16T09:38:08.894Z,108.93
2023-02-16T09:41:20.352Z,91.13
2023-02-16T09:44:32.559Z,85.93
2023-02-16T09:47:40.850Z,92.60
2023-02-16T09:50:53.762Z,95.30
2023-02-16T09:54:15.400Z,107.28
2023-02-16T09:57:19.665Z,106.13
2023-02-16T10:00:34.287Z,102.18
2023-02-16T10:03:55.064Z,102.65
2023-02-16T10:07:25.027Z,105.55
2023-02-16T10:10:40.215Z,102.10
2023-02-16T10:13:54.038Z,103.10
2023-02-16T10:17:15.607Z,100.95
2023-02-16T10:20:34.543Z,105.35
2023-02-16T10:23:55.631Z,100.85
2023-02-16T10:27:07.503Z,103.27
2023-02-16T10:30:19.953Z,104.37
2023-02-16T10:33:43.347Z,102.85
2023-02-16T10:36:51.926Z,102.90
2023-02-16T10:40:24.415Z,107.50
2023-02-16T10:43:41.929Z,104.37
2023-02-16T10:46:48.742Z,98.73
2023-02-16T10:49:52.705Z,95.93
2023-02-16T10:52:59.962Z,92.97
2023-02-16T10:56:20.848Z,93.32
2023-02-16T10:59:26.540Z,97.23
2023-02-16T11:02:35.320Z,95.27
2023-02-16T11:05:40.545Z,80.28
2023-02-16T11:08:54.282Z,73.32
2023-02-16T11:11:56.899Z,73.00
2023-02-16T11:15:24.760Z,89.77
2023-02-16T11:18:41.979Z,74.30
2023-02-16T11:21:48.709Z,75.00
2023-02-16T11:24:51.238Z,67.40
2023-02-16T11:27:59.080Z,74.28
2023-02-16T11:31:13.395Z,66.47
2023-02-16T11:34:27.599Z,73.57
2023-02-16T11:37:33.673Z,63.13
2023-02-16T11:40:36.669Z,62.42
2023-02-16T11:43:42.512Z,61.28
2023-02-16T11:46:45.398Z,65.83
2023-02-16T11:49:49.314Z,66.87
2023-02-16T11:52:54.634Z,67.47
2023-02-16T11:56:12.733Z,67.00
2023-02-16T11:59:23.390Z,67.43
2023-02-16T12:02:40.740Z,68.50
2023-02-16T12:06:15.589Z,65.13
2023-02-16T12:09:21.847Z,63.45
2023-02-16T12:12:41.590Z,61.20
2023-02-16T12:16:11.281Z,63.80
2023-02-16T12:19:33.778Z,57.77
2023-02-16T12:22:45.742Z,56.23
2023-02-16T12:26:09.988Z,65.55
2023-02-16T12:29:29.656Z,65.13
2023-02-16T12:32:53.471Z,62.17
2023-02-16T12:36:30.118Z,61.00
2023-02-16T12:39:48.123Z,66.93
2023-02-16T12:43:09.205Z,64.93
2023-02-16T12:46:23.854Z,64.40
2023-02-16T12:49:34.985Z,58.38
2023-02-16T12:52:46.567Z,56.70
2023-02-16T12:56:12.590Z,55.93
2023-02-16T12:59:36.218Z,66.03
2023-02-16T13:02:47.058Z,58.97
2023-02-16T13:06:00.886Z,60.42
2023-02-16T13:09:13.764Z,60.70
2023-02-16T13:12:25.213Z,60.70
2023-02-16T13:15:44.713Z,60.30
2023-02-16T13:18:50.839Z,55.30
2023-02-16T13:21:53.673Z,59.63
2023-02-16T13:25:21.068Z,59.80
2023-02-16T13:29:10.785Z,59.63
2023-02-16T13:32:25.978Z,56.43
2023-02-16T13:35:40.854Z,61.10
2023-02-16T13:38:55.526Z,55.47
2023-02-16T13:42:35.144Z,61.83
2023-02-16T13:45:44.665Z,60.33
2023-02-16T13:48:50.479Z,58.93
2023-02-16T13:51:54.739Z,58.97
2023-02-16T13:55:01.680Z,57.88
2023-02-16T13:58:07.747Z,68.28
2023-02-16T14:01:28.491Z,57.50
2023-02-16T14:04:31.122Z,58.40
2023-02-16T14:07:38.379Z,58.60
2023-02-16T14:10:56.231Z,50.92
2023-02-16T14:13:59.621Z,56.35
2023-02-16T14:17:14.627Z,55.47
2023-02-16T14:20:17.299Z,47.43
2023-02-16T14:23:34.363Z,51.85
2023-02-16T14:27:01.859Z,51.13
2023-02-16T14:30:05.891Z,52.40
2023-02-16T14:33:23.324Z,50.00
2023-02-16T14:36:27.253Z,55.23
2023-02-16T14:39:30.188Z,56.03
2023-02-16T14:42:35.241Z,52.53
2023-02-16T14:46:08.301Z,50.17
2023-02-16T14:49:35.028Z,44.87
2023-02-16T14:52:40.340Z,35.57
2023-02-16T14:56:26.711Z,33.45
2023-02-16T14:59:42.667Z,28.08
2023-02-16T15:02:57.458Z,31.13
2023-02-16T15:06:05.934Z,28.67
2023-02-16T15:09:23.508Z,29.93
2023-02-16T15:12:32.706Z,25.98
2023-02-16T15:15:48.705Z,28.98
2023-02-16T15:18:55.935Z,31.27
2023-02-16T15:22:17.237Z,28.90
2023-02-16T15:25:30.016Z,30.10
2023-02-16T15:28:35.941Z,30.98
2023-02-16T15:31:38.986Z,41.63
2023-02-16T15:34:41.646Z,34.13
2023-02-16T15:37:44.176Z,37.53
2023-02-16T15:40:47.777Z,37.90
2023-02-16T15:43:52.148Z,36.03
2023-02-16T15:47:07.160Z,39.20
2023-02-16T15:50:14.377Z,41.15
2023-02-16T15:53:24.379Z,38.73
2023-02-16T15:56:29.904Z,44.07
2023-02-16T15:59:41.198Z,38.25
2023-02-16T16:02:49.945Z,39.22
2023-02-16T16:06:06.127Z,43.45
2023-02-16T16:09:21.578Z,43.17
2023-02-16T16:12:25.827Z,41.33
2023-02-16T16:15:30.396Z,48.10
2023-02-16T16:18:50.370Z,44.00
2023-02-16T16:21:55.329Z,47.67
2023-02-16T16:24:57.955Z,42.50
2023-02-16T16:28:01.132Z,48.47
2023-02-16T16:31:09.885Z,48.10
2023-02-16T16:34:31.773Z,42.58
2023-02-16T16:37:35.812Z,51.13
2023-02-16T16:40:39.612Z,44.43
2023-02-16T16:43:54.574Z,44.50
2023-02-16T16:46:57.332Z,46.55
2023-02-16T16:50:11.084Z,48.20
2023-02-16T16:53:28.835Z,38.72
2023-02-16T16:56:36.863Z,49.03
2023-02-16T16:59:39.616Z,48.00
2023-02-16T17:02:42.243Z,45.65
2023-02-16T17:05:46.152Z,52.38
2023-02-16T17:08:49.064Z,52.42
2023-02-16T17:11:52.027Z,53.37
2023-02-16T17:14:55.226Z,52.13
2023-02-16T17:17:58.928Z,54.92
2023-02-16T17:21:01.607Z,58.50
2023-02-16T17:24:07.177Z,60.78
2023-02-16T17:27:10.185Z,57.27
2023-02-16T17:30:14.153Z,55.17
2023-02-16T17:33:17.359Z,54.10
2023-02-16T17:36:21.596Z,51.22
2023-02-16T17:39:24.512Z,59.47
2023-02-16T17:42:29.184Z,53.00
2023-02-16T17:45:32.105Z,57.53
2023-02-16T17:48:36.351Z,59.70
2023-02-16T17:51:39.967Z,64.55
2023-02-16T17:54:42.638Z,62.03
2023-02-16T17:57:45.116Z,106.60
2023-02-16T18:00:47.617Z,76.30
2023-02-16T18:03:51.060Z,61.13
2023-02-16T18:06:53.908Z,67.15
2023-02-16T18:09:56.739Z,66.60
2023-02-16T18:12:59.483Z,69.90
2023-02-16T18:16:07.130Z,70.73
2023-02-16T18:19:16.444Z,72.97
2023-02-16T18:22:19.178Z,73.68
2023-02-16T18:25:22.349Z,88.28
2023-02-16T18:28:30.839Z,80.00
2023-02-16T18:31:34.175Z,81.43
2023-02-16T18:34:37.656Z,88.28
2023-02-16T18:37:40.891Z,77.75
2023-02-16T18:40:44.860Z,74.82
2023-02-16T18:43:48.390Z,72.20
2023-02-16T18:46:51.673Z,76.90
2023-02-16T18:49:56.419Z,78.25
2023-02-16T18:52:59.037Z,82.70
2023-02-16T18:56:01.841Z,89.13
2023-02-16T18:59:04.324Z,102.87
2023-02-16T19:02:08.036Z,98.00
2023-02-16T19:05:11.541Z,94.32
2023-02-16T19:08:15.651Z,104.68
2023-02-16T19:11:19.620Z,98.93
2023-02-16T19:14:22.535Z,95.17
2023-02-16T19:17:25.379Z,84.80
2023-02-16T19:20:29.740Z,96.18
2023-02-16T19:23:32.745Z,94.57
2023-02-16T19:26:35.653Z,87.55
2023-02-16T19:29:38.584Z,93.73
2023-02-16T19:32:41.721Z,96.20
2023-02-16T19:35:44.975Z,142.48
2023-02-16T19:38:49.100Z,137.55
2023-02-16T19:41:51.952Z,141.00
2023-02-16T19:44:54.845Z,123.50
2023-02-16T19:47:57.633Z,106.03
2023-02-16T19:51:06.609Z,114.25
2023-02-16T19:54:09.274Z,112.15
2023-02-16T19:57:12.174Z,128.98
2023-02-16T20:00:15.197Z,109.10
2023-02-16T20:03:18.620Z,118.75
2023-02-16T20:06:24.280Z,103.88
2023-02-16T20:09:28.124Z,114.85
2023-02-16T20:12:31.313Z,113.33
2023-02-16T20:15:34.283Z,102.80
2023-02-16T20:18:38.600Z,115.10
2023-02-16T20:21:44.125Z,113.95
2023-02-16T20:24:46.946Z,112.13
2023-02-16T20:27:50.593Z,106.80
2023-02-16T20:30:53.755Z,112.88
2023-02-16T20:33:57.845Z,120.00
2023-02-16T20:37:00.622Z,116.18
2023-02-16T20:40:04.118Z,101.97
2023-02-16T20:43:07.493Z,102.80
2023-02-16T20:46:12.163Z,98.40
2023-02-16T20:49:16.431Z,104.65
2023-02-16T20:52:18.959Z,95.28
2023-02-16T20:55:21.758Z,101.47
2023-02-16T20:58:25.572Z,106.40
2023-02-16T21:01:37.842Z,108.20
2023-02-16T21:04:40.768Z,112.95
2023-02-16T21:07:43.563Z,104.60
2023-02-16T21:10:46.314Z,109.60
2023-02-16T21:13:49.094Z,110.40
2023-02-16T21:16:52.231Z,111.97
2023-02-16T21:19:54.915Z,119.33
2023-02-16T21:22:57.598Z,128.05
2023-02-16T21:26:02.354Z,123.03
2023-02-16T21:29:04.976Z,122.33
2023-02-16T21:32:07.965Z,126.95
2023-02-16T21:35:10.508Z,129.82
2023-02-16T21:38:13.526Z,122.13
2023-02-16T21:41:27.574Z,123.93
2023-02-16T21:44:33.082Z,111.93
2023-02-16T21:47:54.728Z,139.05
2023-02-16T21:51:02.171Z,139.80
2023-02-16T21:54:14.296Z,117.33
2023-02-16T21:57:17.011Z,122.75
2023-02-16T22:00:19.581Z,109.13
2023-02-16T22:03:22.262Z,111.20
2023-02-16T22:06:32.364Z,119.63
2023-02-16T22:09:35.185Z,108.60
2023-02-16T22:12:37.736Z,120.00
2023-02-16T22:15:40.333Z,101.55
2023-02-16T22:18:44.115Z,107.20
2023-02-16T22:21:48.273Z,109.37
2023-02-16T22:24:50.787Z,106.22
2023-02-16T22:27:53.369Z,101.40
2023-02-16T22:30:55.907Z,105.70
2023-02-16T22:34:11.676Z,103.33
2023-02-16T22:37:14.181Z,106.25
2023-02-16T22:40:16.931Z,107.43
2023-02-16T22:43:19.433Z,108.05
2023-02-16T22:46:23.258Z,110.53
2023-02-16T22:49:26.020Z,112.80
2023-02-16T22:52:30.062Z,110.38
2023-02-16T22:55:32.517Z,106.03
2023-02-16T22:58:36.407Z,111.77
2023-02-16T23:01:39.949Z,105.25
2023-02-16T23:04:43.384Z,99.35
2023-02-16T23:07:45.967Z,107.40
2023-02-16T23:11:02.168Z,89.30
2023-02-16T23:14:05.950Z,95.25
2023-02-16T23:17:09.667Z,95.70
2023-02-16T23:20:12.345Z,90.53
2023-02-16T23:23:15.171Z,93.05
2023-02-16T23:26:19.323Z,97.95
2023-02-16T23:29:22.295Z,99.90
2023-02-16T23:32:24.788Z,93.70
2023-02-16T23:35:27.300Z,83.75
2023-02-16T23:38:29.942Z,95.55
2023-02-16T23:41:32.607Z,84.57
2023-02-16T23:44:35.090Z,77.60
2023-02-16T23:47:37.724Z,68.95
2023-02-16T23:50:40.777Z,78.63
2023-02-16T23:53:43.477Z,78.10
2023-02-16T23:56:45.895Z,75.87
2023-02-16T23:59:48.458Z,71.38
